Terminal Aerodrome Forecast
Issued by NWS Wilmington, OH

Current Version | Previous Version | Graphics & Text | Print | Product List | Glossary On
Versions: 1 2 3 4 5 6 7 8 9 10 11 12 13 14
000
FTUS41 KILN 181100
TAFILN
TAF
KILN 181120Z 1812/1912 23005KT P6SM FEW070 BKN150
     FM181900 27008KT P6SM BKN060
     FM190000 35005KT P6SM SCT060
     FM190700 03009KT P6SM SKC=

USA.gov is the U.S. government's official web portal to all federal, state and local government web resources and services.